createdAt,value
2022-09-06T00:00:55.881Z,999.13
2022-09-06T00:01:55.900Z,999.10
2022-09-06T00:02:55.894Z,999.13
2022-09-06T00:03:55.909Z,999.11
2022-09-06T00:04:55.839Z,999.10
2022-09-06T00:05:55.830Z,999.03
2022-09-06T00:06:55.822Z,998.97
2022-09-06T00:07:55.821Z,999.00
2022-09-06T00:08:55.794Z,998.89
2022-09-06T00:09:55.780Z,998.95
2022-09-06T00:11:00.398Z,998.98
2022-09-06T00:11:56.761Z,998.95
2022-09-06T00:12:55.743Z,998.93
2022-09-06T00:13:55.753Z,998.98
2022-09-06T00:14:55.719Z,998.99
2022-09-06T00:15:55.820Z,998.99
2022-09-06T00:16:55.693Z,999.03
2022-09-06T00:17:55.693Z,999.04
2022-09-06T00:18:55.671Z,999.02
2022-09-06T00:19:55.682Z,998.98
2022-09-06T00:20:55.643Z,998.99
2022-09-06T00:21:55.655Z,999.03
2022-09-06T00:22:55.622Z,999.07
2022-09-06T00:23:55.621Z,999.10
2022-09-06T00:24:55.623Z,999.10
2022-09-06T00:25:55.593Z,999.11
2022-09-06T00:26:55.582Z,999.06
2022-09-06T00:27:55.573Z,999.08
2022-09-06T00:28:55.555Z,999.08
2022-09-06T00:29:55.544Z,999.03
2022-09-06T00:30:55.608Z,999.03
2022-09-06T00:31:55.529Z,999.04
2022-09-06T00:32:55.510Z,999.04
2022-09-06T00:33:55.494Z,999.03
2022-09-06T00:34:55.484Z,998.97
2022-09-06T00:35:55.632Z,998.98
2022-09-06T00:36:55.468Z,999.03
2022-09-06T00:37:55.456Z,998.97
2022-09-06T00:38:55.444Z,998.99
2022-09-06T00:39:55.478Z,998.98
2022-09-06T00:40:55.422Z,998.95
2022-09-06T00:41:55.432Z,998.97
2022-09-06T00:42:55.394Z,998.98
2022-09-06T00:43:55.395Z,998.94
2022-09-06T00:44:55.366Z,998.97
2022-09-06T00:45:55.399Z,998.96
2022-09-06T00:46:55.346Z,998.91
2022-09-06T00:47:55.358Z,998.90
2022-09-06T00:48:55.324Z,998.90
2022-09-06T00:49:55.315Z,998.83
2022-09-06T00:50:55.303Z,998.87
2022-09-06T00:51:55.286Z,998.88
2022-09-06T00:52:55.275Z,998.84
2022-09-06T00:53:55.316Z,998.87
2022-09-06T00:54:55.254Z,998.84
2022-09-06T00:55:55.245Z,998.82
2022-09-06T00:56:55.228Z,998.87
2022-09-06T00:57:55.227Z,998.85
2022-09-06T00:58:55.215Z,998.85
2022-09-06T00:59:55.228Z,998.84
2022-09-06T01:00:55.185Z,998.80
2022-09-06T01:01:55.333Z,998.84
2022-09-06T01:02:55.233Z,998.84
2022-09-06T01:03:55.155Z,998.79
2022-09-06T01:04:55.140Z,998.74
2022-09-06T01:05:55.148Z,998.76
2022-09-06T01:06:55.110Z,998.79
2022-09-06T01:07:55.107Z,998.80
2022-09-06T01:08:55.099Z,998.83
2022-09-06T01:09:55.086Z,998.79
2022-09-06T01:10:55.068Z,998.86
2022-09-06T01:11:55.085Z,998.83
2022-09-06T01:12:55.048Z,998.85
2022-09-06T01:13:55.039Z,998.90
2022-09-06T01:14:55.026Z,998.88
2022-09-06T01:15:55.058Z,998.88
2022-09-06T01:16:54.997Z,998.87
2022-09-06T01:17:55.007Z,998.90
2022-09-06T01:18:54.970Z,998.85
2022-09-06T01:19:54.982Z,998.90
2022-09-06T01:20:54.957Z,998.87
2022-09-06T01:21:54.960Z,998.86
2022-09-06T01:22:59.376Z,998.84
2022-09-06T01:23:54.928Z,998.88
2022-09-06T01:24:54.918Z,998.89
2022-09-06T01:25:54.900Z,998.84
2022-09-06T01:26:54.889Z,998.94
2022-09-06T01:27:54.877Z,998.92
2022-09-06T01:28:54.960Z,998.95
2022-09-06T01:29:54.853Z,999.02
2022-09-06T01:30:54.927Z,998.98
2022-09-06T01:31:54.828Z,998.95
2022-09-06T01:32:54.809Z,998.97
2022-09-06T01:33:54.809Z,998.97
2022-09-06T01:34:54.947Z,998.95
2022-09-06T01:35:54.779Z,999.00
2022-09-06T01:37:09.312Z,999.03
2022-09-06T01:37:55.760Z,998.97
2022-09-06T01:38:54.748Z,999.01
2022-09-06T01:39:54.786Z,998.99
2022-09-06T01:40:54.728Z,998.96
2022-09-06T01:41:54.712Z,998.93
2022-09-06T01:42:54.706Z,998.95
2022-09-06T01:43:54.688Z,998.88
2022-09-06T01:44:54.671Z,998.91
2022-09-06T01:45:54.707Z,998.88
2022-09-06T01:46:54.651Z,998.89
2022-09-06T01:47:54.640Z,998.87
2022-09-06T01:48:54.622Z,998.86
2022-09-06T01:49:54.622Z,998.89
2022-09-06T01:50:54.612Z,998.93
2022-09-06T01:51:54.621Z,998.89
2022-09-06T01:52:54.585Z,998.87
2022-09-06T01:53:54.580Z,998.90
2022-09-06T01:54:54.560Z,998.89
2022-09-06T01:55:54.550Z,998.88
2022-09-06T01:56:54.539Z,998.94
2022-09-06T01:57:54.542Z,998.90
2022-09-06T01:58:54.512Z,998.89
2022-09-06T01:59:54.501Z,998.88
2022-09-06T02:00:54.490Z,998.87
2022-09-06T02:01:54.542Z,998.98
2022-09-06T02:02:54.540Z,998.95
2022-09-06T02:03:54.461Z,998.92
2022-09-06T02:04:54.445Z,998.88
2022-09-06T02:05:54.434Z,998.89
2022-09-06T02:06:54.421Z,998.86
2022-09-06T02:07:54.413Z,998.91
2022-09-06T02:08:54.423Z,998.92
2022-09-06T02:09:54.385Z,998.89
2022-09-06T02:10:54.364Z,998.93
2022-09-06T02:11:54.371Z,998.91
2022-09-06T02:12:54.345Z,998.93
2022-09-06T02:13:54.371Z,998.98
2022-09-06T02:14:54.323Z,998.89
2022-09-06T02:15:54.313Z,998.90
2022-09-06T02:16:54.358Z,998.91
2022-09-06T02:17:54.294Z,998.88
2022-09-06T02:18:54.284Z,998.86
2022-09-06T02:19:54.294Z,998.89
2022-09-06T02:20:54.256Z,998.90
2022-09-06T02:21:54.252Z,998.89
2022-09-06T02:22:54.233Z,998.85
2022-09-06T02:23:54.224Z,998.98
2022-09-06T02:24:54.205Z,999.25
2022-09-06T02:25:54.225Z,999.54
2022-09-06T02:26:54.185Z,999.72
2022-09-06T02:27:54.175Z,999.87
2022-09-06T02:28:54.156Z,999.86
2022-09-06T02:29:54.155Z,999.84
2022-09-06T02:30:54.190Z,999.81
2022-09-06T02:31:54.145Z,999.65
2022-09-06T02:32:54.115Z,999.76
2022-09-06T02:33:54.109Z,999.86
2022-09-06T02:34:54.105Z,999.95
2022-09-06T02:35:54.085Z,999.92
2022-09-06T02:36:54.117Z,999.98
2022-09-06T02:37:54.064Z,999.97
2022-09-06T02:38:54.047Z,999.92
2022-09-06T02:39:54.095Z,999.87
2022-09-06T02:40:54.039Z,999.83
2022-09-06T02:41:54.017Z,999.82
2022-09-06T02:42:54.021Z,999.75
2022-09-06T02:43:53.997Z,999.78
2022-09-06T02:44:53.993Z,999.83
2022-09-06T02:45:54.026Z,999.81
2022-09-06T02:46:56.954Z,999.71
2022-09-06T02:47:53.969Z,999.67
2022-09-06T02:48:53.939Z,999.69
2022-09-06T02:49:53.927Z,999.63
2022-09-06T02:50:53.917Z,999.59
2022-09-06T02:51:53.897Z,999.56
2022-09-06T02:52:53.897Z,999.48
2022-09-06T02:53:53.907Z,999.42
2022-09-06T02:54:53.868Z,999.45
2022-09-06T02:55:53.874Z,999.40
2022-09-06T02:56:53.848Z,999.38
2022-09-06T02:57:53.837Z,999.42
2022-09-06T02:58:53.850Z,999.38
2022-09-06T02:59:53.810Z,999.37
2022-09-06T03:00:53.871Z,999.40
2022-09-06T03:01:53.789Z,999.36
2022-09-06T03:02:53.779Z,999.40
2022-09-06T03:03:53.762Z,999.37
2022-09-06T03:04:53.785Z,999.31
2022-09-06T03:05:53.742Z,999.26
2022-09-06T03:06:53.743Z,999.20
2022-09-06T03:07:53.720Z,999.21
2022-09-06T03:08:53.710Z,999.18
2022-09-06T03:09:53.691Z,999.18
2022-09-06T03:10:53.702Z,999.18
2022-09-06T03:11:53.670Z,999.17
2022-09-06T03:12:53.660Z,999.12
2022-09-06T03:13:53.650Z,999.20
2022-09-06T03:14:55.105Z,999.12
2022-09-06T03:15:53.623Z,999.16
2022-09-06T03:16:53.669Z,999.18
2022-09-06T03:17:53.593Z,999.27
2022-09-06T03:18:53.608Z,999.37
2022-09-06T03:19:53.575Z,999.40
2022-09-06T03:20:53.564Z,999.42
2022-09-06T03:21:53.573Z,999.46
2022-09-06T03:22:53.541Z,999.41
2022-09-06T03:23:53.526Z,999.26
2022-09-06T03:24:53.538Z,999.19
2022-09-06T03:25:53.509Z,999.18
2022-09-06T03:26:53.491Z,999.07
2022-09-06T03:27:53.504Z,999.09
2022-09-06T03:28:53.471Z,999.01
2022-09-06T03:29:53.455Z,999.07
2022-09-06T03:30:53.479Z,999.07
2022-09-06T03:31:53.423Z,999.06
2022-09-06T03:32:53.424Z,999.00
2022-09-06T03:33:53.434Z,999.00
2022-09-06T03:34:53.393Z,998.92
2022-09-06T03:35:53.384Z,998.82
2022-09-06T03:36:53.373Z,998.77
2022-09-06T03:37:53.357Z,998.71
2022-09-06T03:38:53.356Z,998.74
2022-09-06T03:39:53.496Z,998.76
2022-09-06T03:40:53.325Z,998.72
2022-09-06T03:41:53.315Z,998.72
2022-09-06T03:42:53.304Z,998.70
2022-09-06T03:43:53.285Z,998.78
2022-09-06T03:44:53.284Z,998.75
2022-09-06T03:45:53.333Z,998.71
2022-09-06T03:46:53.255Z,998.67
2022-09-06T03:47:53.243Z,998.64
2022-09-06T03:48:53.233Z,998.51
2022-09-06T03:49:53.217Z,998.45
2022-09-06T03:50:53.246Z,998.41
2022-09-06T03:51:53.187Z,998.39
2022-09-06T03:52:53.186Z,998.48
2022-09-06T03:53:53.173Z,998.48
2022-09-06T03:54:53.165Z,998.60
2022-09-06T03:55:53.159Z,998.60
2022-09-06T03:56:53.154Z,998.63
2022-09-06T03:57:53.117Z,998.64
2022-09-06T03:58:53.107Z,998.65
2022-09-06T03:59:53.103Z,998.58
2022-09-06T04:00:53.140Z,998.58
2022-09-06T04:01:53.123Z,998.64
2022-09-06T04:02:53.067Z,998.56
2022-09-06T04:03:53.057Z,998.55
2022-09-06T04:04:53.048Z,998.60
2022-09-06T04:05:53.036Z,998.64
2022-09-06T04:06:53.030Z,998.69
2022-09-06T04:07:53.038Z,998.77
2022-09-06T04:08:53.008Z,998.72
2022-09-06T04:09:52.998Z,998.78
2022-09-06T04:10:52.978Z,998.73
2022-09-06T04:11:52.958Z,998.64
2022-09-06T04:12:52.977Z,998.61
2022-09-06T04:13:52.956Z,998.57
2022-09-06T04:14:52.929Z,998.51
2022-09-06T04:15:52.923Z,998.48
2022-09-06T04:16:52.963Z,998.48
2022-09-06T04:17:52.929Z,998.47
2022-09-06T04:18:52.920Z,998.56
2022-09-06T04:19:52.871Z,998.48
2022-09-06T04:20:52.870Z,998.45
2022-09-06T04:21:52.853Z,998.30
2022-09-06T04:22:52.850Z,998.22
2022-09-06T04:23:52.830Z,998.12
2022-09-06T04:24:52.852Z,998.04
2022-09-06T04:25:52.810Z,998.05
2022-09-06T04:26:52.801Z,997.93
2022-09-06T04:27:52.794Z,997.95
2022-09-06T04:28:52.771Z,997.94
2022-09-06T04:29:52.761Z,997.97
2022-09-06T04:30:52.781Z,997.87
2022-09-06T04:31:52.780Z,997.88
2022-09-06T04:32:52.741Z,997.89
2022-09-06T04:33:52.721Z,997.92
2022-09-06T04:34:52.711Z,998.02
2022-09-06T04:35:52.702Z,998.05
2022-09-06T04:36:52.734Z,998.06
2022-09-06T04:37:52.672Z,998.11
2022-09-06T04:38:52.662Z,998.10
2022-09-06T04:39:52.718Z,998.02
2022-09-06T04:40:52.642Z,998.06
2022-09-06T04:41:52.634Z,998.10
2022-09-06T04:42:52.643Z,998.10
2022-09-06T04:43:52.605Z,998.14
2022-09-06T04:44:52.612Z,998.14
2022-09-06T04:45:52.676Z,998.11
2022-09-06T04:46:52.572Z,998.13
2022-09-06T04:47:52.555Z,998.08
2022-09-06T04:48:52.613Z,997.98
2022-09-06T04:49:52.533Z,998.01
2022-09-06T04:50:52.524Z,998.06
2022-09-06T04:51:52.514Z,998.05
2022-09-06T04:52:52.503Z,998.12
2022-09-06T04:53:52.486Z,998.18
2022-09-06T04:54:52.502Z,998.25
2022-09-06T04:55:52.473Z,998.30
2022-09-06T04:56:52.464Z,998.41
2022-09-06T04:57:52.445Z,998.44
2022-09-06T04:58:52.434Z,998.51
2022-09-06T04:59:52.424Z,998.49
2022-09-06T05:00:52.519Z,998.56
2022-09-06T05:01:52.439Z,998.62
2022-09-06T05:02:52.394Z,998.68
2022-09-06T05:03:56.200Z,998.71
2022-09-06T05:04:52.373Z,998.71
2022-09-06T05:05:52.376Z,998.73
2022-09-06T05:06:52.346Z,998.71
2022-09-06T05:07:52.336Z,998.71
2022-09-06T05:08:52.325Z,998.72
2022-09-06T05:09:52.306Z,998.79
2022-09-06T05:10:52.304Z,998.78
2022-09-06T05:11:52.306Z,998.78
2022-09-06T05:12:52.276Z,998.81
2022-09-06T05:13:52.266Z,998.80
2022-09-06T05:14:52.257Z,998.80
2022-09-06T05:15:52.237Z,998.80
2022-09-06T05:16:52.266Z,998.81
2022-09-06T05:17:52.238Z,998.83
2022-09-06T05:18:52.209Z,998.78
2022-09-06T05:19:52.200Z,998.81
2022-09-06T05:20:52.189Z,998.77
2022-09-06T05:21:52.178Z,998.82
2022-09-06T05:22:52.167Z,998.87
2022-09-06T05:23:55.479Z,998.81
2022-09-06T05:24:53.146Z,998.75
2022-09-06T05:25:52.129Z,998.85
2022-09-06T05:26:52.126Z,998.83
2022-09-06T05:27:52.109Z,998.86
2022-09-06T05:28:52.118Z,998.88
2022-09-06T05:29:52.087Z,998.83
2022-09-06T05:30:52.078Z,998.88
2022-09-06T05:31:52.107Z,998.86
2022-09-06T05:32:52.057Z,998.84
2022-09-06T05:33:52.041Z,998.88
2022-09-06T05:34:52.057Z,998.85
2022-09-06T05:35:52.019Z,998.90
2022-09-06T05:36:52.021Z,998.85
2022-09-06T05:37:52.001Z,998.92
2022-09-06T05:38:51.989Z,998.87
2022-09-06T05:39:59.071Z,998.86
2022-09-06T05:40:51.971Z,998.90
2022-09-06T05:41:51.952Z,998.89
2022-09-06T05:42:51.944Z,998.93
2022-09-06T05:43:51.978Z,998.92
2022-09-06T05:44:51.923Z,998.91
2022-09-06T05:45:52.013Z,998.89
2022-09-06T05:46:51.905Z,998.96
2022-09-06T05:47:51.884Z,998.91
2022-09-06T05:48:51.883Z,998.91
2022-09-06T05:49:51.864Z,998.91
2022-09-06T05:50:51.874Z,998.92
2022-09-06T05:51:51.865Z,998.89
2022-09-06T05:52:51.834Z,998.85
2022-09-06T05:53:51.824Z,998.86
2022-09-06T05:54:51.804Z,998.87
2022-09-06T05:55:51.794Z,998.90
2022-09-06T05:56:51.785Z,998.94
2022-09-06T05:57:51.793Z,998.99
2022-09-06T05:58:51.763Z,999.00
2022-09-06T05:59:51.747Z,998.99
2022-09-06T06:00:51.771Z,998.99
2022-09-06T06:01:51.770Z,998.99
2022-09-06T06:02:51.745Z,999.03
2022-09-06T06:03:51.696Z,999.02
2022-09-06T06:04:51.697Z,999.04
2022-09-06T06:05:51.676Z,999.05
2022-09-06T06:06:51.665Z,999.03
2022-09-06T06:07:51.657Z,998.96
2022-09-06T06:08:51.666Z,999.01
2022-09-06T06:09:51.626Z,999.01
2022-09-06T06:10:51.618Z,999.03
2022-09-06T06:11:51.604Z,998.99
2022-09-06T06:12:51.596Z,999.03
2022-09-06T06:13:51.606Z,999.02
2022-09-06T06:14:51.578Z,999.05
2022-09-06T06:15:51.559Z,999.06
2022-09-06T06:16:51.589Z,999.09
2022-09-06T06:17:51.527Z,999.12
2022-09-06T06:18:52.618Z,999.08
2022-09-06T06:19:51.528Z,999.12
2022-09-06T06:20:51.499Z,999.13
2022-09-06T06:21:51.490Z,999.05
2022-09-06T06:22:51.479Z,999.13
2022-09-06T06:23:51.459Z,999.05
2022-09-06T06:24:51.457Z,999.07
2022-09-06T06:25:51.460Z,999.01
2022-09-06T06:26:51.437Z,999.10
2022-09-06T06:27:51.419Z,999.06
2022-09-06T06:28:51.415Z,999.12
2022-09-06T06:29:51.399Z,999.11
2022-09-06T06:30:51.389Z,999.24
2022-09-06T06:31:51.468Z,999.16
2022-09-06T06:32:51.361Z,999.18
2022-09-06T06:33:51.350Z,999.16
2022-09-06T06:34:51.343Z,999.19
2022-09-06T06:35:51.332Z,999.17
2022-09-06T06:36:51.320Z,999.19
2022-09-06T06:37:51.335Z,999.19
2022-09-06T06:38:51.292Z,999.21
2022-09-06T06:39:51.327Z,999.21
2022-09-06T06:40:54.114Z,999.18
2022-09-06T06:41:52.260Z,999.20
2022-09-06T06:42:51.254Z,999.19
2022-09-06T06:43:51.312Z,999.25
2022-09-06T06:44:51.233Z,999.27
2022-09-06T06:45:51.249Z,999.24
2022-09-06T06:46:51.242Z,999.26
2022-09-06T06:47:51.193Z,999.19
2022-09-06T06:48:54.741Z,999.24
2022-09-06T06:49:51.184Z,999.26
2022-09-06T06:50:51.165Z,999.31
2022-09-06T06:51:51.146Z,999.32
2022-09-06T06:52:51.144Z,999.34
2022-09-06T06:53:51.125Z,999.41
2022-09-06T06:54:51.138Z,999.46
2022-09-06T06:55:51.105Z,999.36
2022-09-06T06:56:51.104Z,999.42
2022-09-06T06:57:51.087Z,999.40
2022-09-06T06:58:51.076Z,999.34
2022-09-06T06:59:51.066Z,999.37
2022-09-06T07:00:51.194Z,999.41
2022-09-06T07:01:51.219Z,999.48
2022-09-06T07:02:51.035Z,999.43
2022-09-06T07:03:51.018Z,999.47
2022-09-06T07:04:51.009Z,999.49
2022-09-06T07:06:13.319Z,999.52
2022-09-06T07:07:51.979Z,999.57
2022-09-06T07:08:50.961Z,999.55
2022-09-06T07:10:51.942Z,999.54
2022-09-06T07:11:50.980Z,999.51
2022-09-06T07:12:50.920Z,999.44
2022-09-06T07:13:50.913Z,999.47
2022-09-06T07:14:50.900Z,999.50
2022-09-06T07:15:50.893Z,999.45
2022-09-06T07:16:50.881Z,999.49
2022-09-06T07:17:50.897Z,999.42
2022-09-06T07:18:50.852Z,999.46
2022-09-06T07:20:14.752Z,999.50
2022-09-06T07:21:51.833Z,999.53
2022-09-06T07:22:50.815Z,999.48
2022-09-06T07:24:06.975Z,999.52
2022-09-06T07:24:51.795Z,999.43
2022-09-06T07:25:50.785Z,999.52
2022-09-06T07:27:51.807Z,999.48
2022-09-06T07:28:50.767Z,999.50
2022-09-06T07:29:50.745Z,999.51
2022-09-06T07:30:50.734Z,999.48
2022-09-06T07:32:11.955Z,999.51
2022-09-06T07:32:51.707Z,999.54
2022-09-06T07:33:55.117Z,999.59
2022-09-06T07:34:51.688Z,999.55
2022-09-06T07:35:50.679Z,999.56
2022-09-06T07:36:50.676Z,999.62
2022-09-06T07:37:50.657Z,999.58
2022-09-06T07:38:50.638Z,999.57
2022-09-06T07:39:50.722Z,999.61
2022-09-06T07:40:50.618Z,999.64
2022-09-06T07:41:50.619Z,999.71
2022-09-06T07:42:50.600Z,999.73
2022-09-06T07:43:50.600Z,999.71
2022-09-06T07:44:50.600Z,999.74
2022-09-06T07:45:50.570Z,999.70
2022-09-06T07:46:50.630Z,999.70
2022-09-06T07:47:57.824Z,999.71
2022-09-06T07:48:51.531Z,999.69
2022-09-06T07:50:53.488Z,999.69
2022-09-06T07:51:50.515Z,999.74
2022-09-06T07:53:57.840Z,999.68
2022-09-06T07:54:51.479Z,999.71
2022-09-06T07:55:50.493Z,999.68
2022-09-06T07:56:50.452Z,999.71
2022-09-06T07:57:50.445Z,999.69
2022-09-06T07:58:50.436Z,999.73
2022-09-06T07:59:50.424Z,999.76
2022-09-06T08:00:50.475Z,999.72
2022-09-06T08:01:50.519Z,999.79
2022-09-06T08:02:50.385Z,999.76
2022-09-06T08:03:50.375Z,999.84
2022-09-06T08:04:51.730Z,999.77
2022-09-06T08:06:10.883Z,999.80
2022-09-06T08:08:59.214Z,999.81
2022-09-06T08:09:51.317Z,999.81
2022-09-06T08:10:50.306Z,999.78
2022-09-06T08:11:50.319Z,999.81
2022-09-06T08:12:50.278Z,999.85
2022-09-06T08:13:50.279Z,999.80
2022-09-06T08:14:50.261Z,999.80
2022-09-06T08:15:50.306Z,999.74
2022-09-06T08:16:50.242Z,999.78
2022-09-06T08:17:50.273Z,999.70
2022-09-06T08:18:50.220Z,999.74
2022-09-06T08:19:50.211Z,999.75
2022-09-06T08:20:50.192Z,999.79
2022-09-06T08:21:50.193Z,999.74
2022-09-06T08:22:50.202Z,999.73
2022-09-06T08:23:50.171Z,999.71
2022-09-06T08:24:50.156Z,999.73
2022-09-06T08:25:50.151Z,999.73
2022-09-06T08:26:50.133Z,999.74
2022-09-06T08:27:50.130Z,999.73
2022-09-06T08:28:50.125Z,999.78
2022-09-06T08:29:50.103Z,999.75
2022-09-06T08:30:50.094Z,999.78
2022-09-06T08:31:50.122Z,999.81
2022-09-06T08:32:50.074Z,999.80
2022-09-06T08:33:50.096Z,999.80
2022-09-06T08:34:50.055Z,999.83
2022-09-06T08:35:50.047Z,999.85
2022-09-06T08:36:50.031Z,999.80
2022-09-06T08:37:50.026Z,999.78
2022-09-06T08:38:50.017Z,999.81
2022-09-06T08:39:50.092Z,999.77
2022-09-06T08:40:50.757Z,999.78
2022-09-06T08:41:49.989Z,999.83
2022-09-06T08:42:49.972Z,999.81
2022-09-06T08:43:50.435Z,999.79
2022-09-06T08:44:57.835Z,999.81
2022-09-06T08:45:53.766Z,999.74
2022-09-06T08:46:49.969Z,999.76
2022-09-06T08:47:49.920Z,999.80
2022-09-06T08:48:49.910Z,999.78
2022-09-06T08:49:49.920Z,999.70
2022-09-06T08:50:49.912Z,999.72
2022-09-06T08:51:49.881Z,999.78
2022-09-06T08:53:13.161Z,999.77
2022-09-06T08:53:50.861Z,999.77
2022-09-06T08:54:49.851Z,999.77
2022-09-06T08:55:49.842Z,999.75
2022-09-06T08:56:49.842Z,999.72
2022-09-06T08:57:49.822Z,999.72
2022-09-06T08:58:49.812Z,999.73
2022-09-06T08:59:49.804Z,999.75
2022-09-06T09:00:49.838Z,999.69
2022-09-06T09:01:49.861Z,999.72
2022-09-06T09:02:49.765Z,999.66
2022-09-06T09:03:49.761Z,999.70
2022-09-06T09:04:49.755Z,999.74
2022-09-06T09:05:49.736Z,999.70
2022-09-06T09:06:49.726Z,999.73
2022-09-06T09:07:49.745Z,999.70
2022-09-06T09:08:49.716Z,999.70
2022-09-06T09:09:49.707Z,999.61
2022-09-06T09:10:49.702Z,999.59
2022-09-06T09:11:49.679Z,999.60
2022-09-06T09:12:49.671Z,999.67
2022-09-06T09:13:49.677Z,999.61
2022-09-06T09:14:49.648Z,999.60
2022-09-06T09:15:49.663Z,999.57
2022-09-06T09:16:49.618Z,999.55
2022-09-06T09:17:49.618Z,999.50
2022-09-06T09:18:49.614Z,999.51
2022-09-06T09:19:49.638Z,999.47
2022-09-06T09:20:49.589Z,999.51
2022-09-06T09:21:49.578Z,999.51
2022-09-06T09:22:49.561Z,999.48
2022-09-06T09:23:49.560Z,999.50
2022-09-06T09:24:49.548Z,999.52
2022-09-06T09:25:49.553Z,999.42
2022-09-06T09:26:49.529Z,999.44
2022-09-06T09:27:49.521Z,999.47
2022-09-06T09:28:49.511Z,999.44
2022-09-06T09:30:50.511Z,999.42
2022-09-06T09:31:53.462Z,999.26
2022-09-06T09:32:49.464Z,999.18
2022-09-06T09:33:49.462Z,999.10
2022-09-06T09:34:49.443Z,999.08
2022-09-06T09:35:49.435Z,999.05
2022-09-06T09:37:54.205Z,999.13
2022-09-06T09:38:50.405Z,998.98
2022-09-06T09:39:49.456Z,999.03
2022-09-06T09:40:49.374Z,999.02
2022-09-06T09:41:49.387Z,998.99
2022-09-06T09:42:49.345Z,998.96
2022-09-06T09:43:49.346Z,998.92
2022-09-06T09:44:49.336Z,998.95
2022-09-06T09:45:49.328Z,998.90
2022-09-06T09:46:49.380Z,998.93
2022-09-06T09:47:49.326Z,998.89
2022-09-06T09:48:49.290Z,998.88
2022-09-06T09:49:49.285Z,998.85
2022-09-06T09:50:49.271Z,998.85
2022-09-06T09:51:49.262Z,998.81
2022-09-06T09:52:49.247Z,998.84
2022-09-06T09:53:49.377Z,998.80
2022-09-06T09:54:49.219Z,998.84
2022-09-06T09:55:49.209Z,998.79
2022-09-06T09:56:49.199Z,998.73
2022-09-06T09:57:49.191Z,998.73
2022-09-06T09:58:49.179Z,998.78
2022-09-06T09:59:49.191Z,998.82
2022-09-06T10:00:49.213Z,998.77
2022-09-06T10:01:49.152Z,998.76
2022-09-06T10:02:49.141Z,998.77
2022-09-06T10:04:50.131Z,998.74
2022-09-06T10:05:49.384Z,998.70
2022-09-06T10:07:10.245Z,998.74
2022-09-06T10:07:50.082Z,998.74
2022-09-06T10:08:49.073Z,998.64
2022-09-06T10:09:49.061Z,998.68
2022-09-06T10:10:49.073Z,998.76
2022-09-06T10:11:49.040Z,998.74
2022-09-06T10:12:49.023Z,998.73
2022-09-06T10:13:49.014Z,998.69
2022-09-06T10:14:49.003Z,998.74
2022-09-06T10:15:49.078Z,998.66
2022-09-06T10:16:49.004Z,998.67
2022-09-06T10:17:48.973Z,998.60
2022-09-06T10:18:49.594Z,998.56
2022-09-06T10:19:49.028Z,998.58
2022-09-06T10:20:48.935Z,998.54
2022-09-06T10:21:48.935Z,998.50
2022-09-06T10:22:48.937Z,998.52
2022-09-06T10:24:49.886Z,998.51
2022-09-06T10:25:49.687Z,998.47
2022-09-06T10:26:48.875Z,998.50
2022-09-06T10:28:01.709Z,998.49
2022-09-06T10:28:49.847Z,998.49
2022-09-06T10:29:48.839Z,998.47
2022-09-06T10:30:48.829Z,998.48
2022-09-06T10:31:48.877Z,998.48
2022-09-06T10:32:48.806Z,998.50
2022-09-06T10:33:48.818Z,998.44
2022-09-06T10:34:48.788Z,998.43
2022-09-06T10:35:48.780Z,998.47
2022-09-06T10:36:48.760Z,998.46
2022-09-06T10:37:48.752Z,998.40
2022-09-06T10:38:48.760Z,998.46
2022-09-06T10:39:48.790Z,998.42
2022-09-06T10:40:48.718Z,998.44
2022-09-06T10:41:48.709Z,998.42
2022-09-06T10:42:48.690Z,998.41
2022-09-06T10:43:48.690Z,998.37
2022-09-06T10:44:48.691Z,998.35
2022-09-06T10:45:48.680Z,998.45
2022-09-06T10:46:48.690Z,998.40
2022-09-06T10:47:48.642Z,998.33
2022-09-06T10:48:48.626Z,998.34
2022-09-06T10:49:48.622Z,998.35
2022-09-06T10:50:48.631Z,998.33
2022-09-06T10:51:48.602Z,998.29
2022-09-06T10:52:48.583Z,998.23
2022-09-06T10:53:48.592Z,998.33
2022-09-06T10:54:48.564Z,998.35
2022-09-06T10:55:48.554Z,998.36
2022-09-06T10:56:48.555Z,998.37
2022-09-06T10:58:16.282Z,998.41
2022-09-06T10:59:51.845Z,998.25
2022-09-06T11:00:48.495Z,998.24
2022-09-06T11:01:48.641Z,998.22
2022-09-06T11:02:48.704Z,998.23
2022-09-06T11:03:58.480Z,998.25
2022-09-06T11:05:49.445Z,998.15
2022-09-06T11:06:48.437Z,998.19
2022-09-06T11:08:51.188Z,998.18
2022-09-06T11:09:48.398Z,998.16
2022-09-06T11:10:48.387Z,998.13
2022-09-06T11:11:48.377Z,998.11
2022-09-06T11:12:48.358Z,998.15
2022-09-06T11:13:48.388Z,998.11
2022-09-06T11:14:48.350Z,998.07
2022-09-06T11:15:48.362Z,998.07
2022-09-06T11:16:48.321Z,998.06
2022-09-06T11:17:48.301Z,998.10
2022-09-06T11:18:48.298Z,998.06
2022-09-06T11:19:48.318Z,998.04
2022-09-06T11:20:48.278Z,997.99
2022-09-06T11:21:48.262Z,998.10
2022-09-06T11:22:48.259Z,998.02
2022-09-06T11:23:48.282Z,998.03
2022-09-06T11:24:48.238Z,998.05
2022-09-06T11:25:48.230Z,998.05
2022-09-06T11:26:48.211Z,998.08
2022-09-06T11:27:48.201Z,998.13
2022-09-06T11:28:48.191Z,998.08
2022-09-06T11:29:48.171Z,998.07
2022-09-06T11:30:48.248Z,998.11
2022-09-06T11:32:16.406Z,998.09
2022-09-06T11:32:49.142Z,998.02
2022-09-06T11:33:48.131Z,998.04
2022-09-06T11:34:48.133Z,998.00
2022-09-06T11:35:48.116Z,997.99
2022-09-06T11:36:48.132Z,997.96
2022-09-06T11:37:48.083Z,997.99
2022-09-06T11:38:48.084Z,998.01
2022-09-06T11:40:49.056Z,997.94
2022-09-06T11:41:48.038Z,997.93
2022-09-06T11:42:48.077Z,997.94
2022-09-06T11:43:48.018Z,997.90
2022-09-06T11:44:48.017Z,997.84
2022-09-06T11:45:48.006Z,997.90
2022-09-06T11:46:48.028Z,997.87
2022-09-06T11:47:47.976Z,997.84
2022-09-06T11:48:47.989Z,997.80
2022-09-06T11:49:47.949Z,997.84
2022-09-06T11:50:47.947Z,997.80
2022-09-06T11:51:47.930Z,997.89
2022-09-06T11:52:47.920Z,997.89
2022-09-06T11:53:47.910Z,997.86
2022-09-06T11:54:47.919Z,997.82
2022-09-06T11:55:47.888Z,997.83
2022-09-06T11:56:47.882Z,997.81
2022-09-06T11:57:47.861Z,997.82
2022-09-06T11:58:47.861Z,997.79
2022-09-06T11:59:47.870Z,997.79
2022-09-06T12:00:47.841Z,997.75
2022-09-06T12:01:47.823Z,997.76
2022-09-06T12:02:47.898Z,997.75
2022-09-06T12:04:48.811Z,997.74
2022-09-06T12:05:47.774Z,997.73
2022-09-06T12:06:47.771Z,997.75
2022-09-06T12:07:47.754Z,997.73
2022-09-06T12:08:47.752Z,997.69
2022-09-06T12:09:47.732Z,997.73
2022-09-06T12:10:47.816Z,997.67
2022-09-06T12:11:47.735Z,997.66
2022-09-06T12:12:47.704Z,997.66
2022-09-06T12:13:47.689Z,997.71
2022-09-06T12:14:47.676Z,997.65
2022-09-06T12:15:47.697Z,997.70
2022-09-06T12:16:47.683Z,997.64
2022-09-06T12:17:47.637Z,997.64
2022-09-06T12:18:47.635Z,997.60
2022-09-06T12:19:47.624Z,997.53
2022-09-06T12:20:47.615Z,997.49
2022-09-06T12:21:47.640Z,997.52
2022-09-06T12:22:47.607Z,997.55
2022-09-06T12:23:47.577Z,997.52
2022-09-06T12:24:47.570Z,997.51
2022-09-06T12:25:47.574Z,997.53
2022-09-06T12:26:49.793Z,997.47
2022-09-06T12:27:48.569Z,997.58
2022-09-06T12:28:47.547Z,997.53
2022-09-06T12:29:47.519Z,997.59
2022-09-06T12:30:47.547Z,997.54
2022-09-06T12:31:47.523Z,997.55
2022-09-06T12:32:47.480Z,997.48
2022-09-06T12:33:47.488Z,997.51
2022-09-06T12:34:47.554Z,997.49
2022-09-06T12:35:58.876Z,997.47
2022-09-06T12:36:48.431Z,997.46
2022-09-06T12:37:47.429Z,997.42
2022-09-06T12:38:47.415Z,997.40
2022-09-06T12:39:47.510Z,997.48
2022-09-06T12:40:47.391Z,997.41
2022-09-06T12:41:47.382Z,997.38
2022-09-06T12:42:47.372Z,997.30
2022-09-06T12:43:47.355Z,997.38
2022-09-06T12:44:47.345Z,997.30
2022-09-06T12:45:47.365Z,997.31